sensor_id;sensor_type;location;lat;lon;timestamp;temperature;humidity
12926;DHT22;6529;50.566;9.774;2023-07-02T00:01:03;16.70;99.90
12926;DHT22;6529;50.566;9.774;2023-07-02T00:03:29;16.70;99.90
12926;DHT22;6529;50.566;9.774;2023-07-02T00:05:54;16.70;99.90
12926;DHT22;6529;50.566;9.774;2023-07-02T00:08:22;16.70;99.90
12926;DHT22;6529;50.566;9.774;2023-07-02T00:10:48;16.70;99.90
12926;DHT22;6529;50.566;9.774;2023-07-02T00:13:14;16.70;99.90
12926;DHT22;6529;50.566;9.774;2023-07-02T00:15:40;16.70;99.90
12926;DHT22;6529;50.566;9.774;2023-07-02T00:18:06;16.70;99.90
12926;DHT22;6529;50.566;9.774;2023-07-02T00:20:33;16.80;99.90
12926;DHT22;6529;50.566;9.774;2023-07-02T00:23:03;16.80;99.90
12926;DHT22;6529;50.566;9.774;2023-07-02T00:25:28;16.70;99.90
12926;DHT22;6529;50.566;9.774;2023-07-02T00:27:54;16.70;99.90
12926;DHT22;6529;50.566;9.774;2023-07-02T00:30:20;16.70;99.90
12926;DHT22;6529;50.566;9.774;2023-07-02T00:32:45;16.70;99.90
12926;DHT22;6529;50.566;9.774;2023-07-02T00:35:11;16.80;99.90
12926;DHT22;6529;50.566;9.774;2023-07-02T00:37:37;16.70;99.90
12926;DHT22;6529;50.566;9.774;2023-07-02T00:40:02;16.80;99.90
12926;DHT22;6529;50.566;9.774;2023-07-02T00:42:28;16.80;99.90
12926;DHT22;6529;50.566;9.774;2023-07-02T00:44:55;16.70;99.90
12926;DHT22;6529;50.566;9.774;2023-07-02T00:47:23;16.70;99.90
12926;DHT22;6529;50.566;9.774;2023-07-02T00:49:50;16.70;99.90
12926;DHT22;6529;50.566;9.774;2023-07-02T00:52:16;16.70;99.90
12926;DHT22;6529;50.566;9.774;2023-07-02T00:54:43;16.60;99.90
12926;DHT22;6529;50.566;9.774;2023-07-02T00:57:09;16.60;99.90
12926;DHT22;6529;50.566;9.774;2023-07-02T00:59:35;16.50;99.90
12926;DHT22;6529;50.566;9.774;2023-07-02T01:02:01;16.60;99.90
12926;DHT22;6529;50.566;9.774;2023-07-02T01:04:27;16.50;99.90
12926;DHT22;6529;50.566;9.774;2023-07-02T01:06:53;16.50;99.90
12926;DHT22;6529;50.566;9.774;2023-07-02T01:09:23;16.50;99.90
12926;DHT22;6529;50.566;9.774;2023-07-02T01:11:55;16.50;99.90
12926;DHT22;6529;50.566;9.774;2023-07-02T01:14:40;16.60;99.90
12926;DHT22;6529;50.566;9.774;2023-07-02T01:17:06;16.50;99.90
12926;DHT22;6529;50.566;9.774;2023-07-02T01:19:46;16.50;99.90
12926;DHT22;6529;50.566;9.774;2023-07-02T01:22:24;16.50;99.90
12926;DHT22;6529;50.566;9.774;2023-07-02T01:24:51;16.50;99.90
12926;DHT22;6529;50.566;9.774;2023-07-02T01:27:17;16.40;99.90
12926;DHT22;6529;50.566;9.774;2023-07-02T01:29:43;16.40;99.90
12926;DHT22;6529;50.566;9.774;2023-07-02T01:32:12;16.40;99.90
12926;DHT22;6529;50.566;9.774;2023-07-02T01:34:38;16.40;99.90
12926;DHT22;6529;50.566;9.774;2023-07-02T01:37:04;16.40;99.90
12926;DHT22;6529;50.566;9.774;2023-07-02T01:39:30;16.40;99.90
12926;DHT22;6529;50.566;9.774;2023-07-02T01:44:33;16.30;99.90
12926;DHT22;6529;50.566;9.774;2023-07-02T01:46:58;16.20;99.90
12926;DHT22;6529;50.566;9.774;2023-07-02T01:49:24;16.20;99.90
12926;DHT22;6529;50.566;9.774;2023-07-02T01:51:55;16.30;99.90
12926;DHT22;6529;50.566;9.774;2023-07-02T01:54:23;16.30;99.90
12926;DHT22;6529;50.566;9.774;2023-07-02T01:56:49;16.20;99.90
12926;DHT22;6529;50.566;9.774;2023-07-02T01:59:15;16.20;99.90
12926;DHT22;6529;50.566;9.774;2023-07-02T02:01:41;16.20;99.90
12926;DHT22;6529;50.566;9.774;2023-07-02T02:04:07;16.20;99.90
12926;DHT22;6529;50.566;9.774;2023-07-02T02:06:33;16.20;99.90
12926;DHT22;6529;50.566;9.774;2023-07-02T02:08:59;16.10;99.90
12926;DHT22;6529;50.566;9.774;2023-07-02T02:11:25;16.10;99.90
12926;DHT22;6529;50.566;9.774;2023-07-02T02:13:52;16.10;99.90
12926;DHT22;6529;50.566;9.774;2023-07-02T02:16:17;16.10;99.90
12926;DHT22;6529;50.566;9.774;2023-07-02T02:18:43;16.10;99.90
12926;DHT22;6529;50.566;9.774;2023-07-02T02:21:09;16.10;99.90
12926;DHT22;6529;50.566;9.774;2023-07-02T02:23:34;16.10;99.90
12926;DHT22;6529;50.566;9.774;2023-07-02T02:26:00;16.10;99.90
12926;DHT22;6529;50.566;9.774;2023-07-02T02:28:26;16.10;99.90
12926;DHT22;6529;50.566;9.774;2023-07-02T02:30:51;16.00;99.90
12926;DHT22;6529;50.566;9.774;2023-07-02T02:33:17;16.00;99.90
12926;DHT22;6529;50.566;9.774;2023-07-02T02:35:42;15.90;99.90
12926;DHT22;6529;50.566;9.774;2023-07-02T02:38:08;15.90;99.90
12926;DHT22;6529;50.566;9.774;2023-07-02T02:40:34;15.80;99.90
12926;DHT22;6529;50.566;9.774;2023-07-02T02:43:00;15.70;99.90
12926;DHT22;6529;50.566;9.774;2023-07-02T02:45:25;15.60;99.90
12926;DHT22;6529;50.566;9.774;2023-07-02T02:47:51;15.60;99.90
12926;DHT22;6529;50.566;9.774;2023-07-02T02:50:17;15.60;99.90
12926;DHT22;6529;50.566;9.774;2023-07-02T02:52:42;15.60;99.90
12926;DHT22;6529;50.566;9.774;2023-07-02T02:55:09;15.60;99.90
12926;DHT22;6529;50.566;9.774;2023-07-02T02:57:36;15.60;99.90
12926;DHT22;6529;50.566;9.774;2023-07-02T03:00:02;15.60;99.90
12926;DHT22;6529;50.566;9.774;2023-07-02T03:02:28;15.60;99.90
12926;DHT22;6529;50.566;9.774;2023-07-02T03:04:53;15.60;99.90
12926;DHT22;6529;50.566;9.774;2023-07-02T03:07:19;15.60;99.90
12926;DHT22;6529;50.566;9.774;2023-07-02T03:09:44;15.60;99.90
12926;DHT22;6529;50.566;9.774;2023-07-02T03:12:10;15.60;99.90
12926;DHT22;6529;50.566;9.774;2023-07-02T03:14:36;15.60;99.90
12926;DHT22;6529;50.566;9.774;2023-07-02T03:17:01;15.60;99.90
12926;DHT22;6529;50.566;9.774;2023-07-02T03:19:28;15.60;99.90
12926;DHT22;6529;50.566;9.774;2023-07-02T03:21:54;15.60;99.90
12926;DHT22;6529;50.566;9.774;2023-07-02T03:24:19;15.60;99.90
12926;DHT22;6529;50.566;9.774;2023-07-02T03:26:45;15.60;99.90
12926;DHT22;6529;50.566;9.774;2023-07-02T03:29:11;15.60;99.90
12926;DHT22;6529;50.566;9.774;2023-07-02T03:31:37;15.60;99.90
12926;DHT22;6529;50.566;9.774;2023-07-02T03:34:09;15.60;99.90
12926;DHT22;6529;50.566;9.774;2023-07-02T03:36:36;15.60;99.90
12926;DHT22;6529;50.566;9.774;2023-07-02T03:39:02;15.60;99.90
12926;DHT22;6529;50.566;9.774;2023-07-02T03:41:29;15.70;99.90
12926;DHT22;6529;50.566;9.774;2023-07-02T03:43:54;15.70;99.90
12926;DHT22;6529;50.566;9.774;2023-07-02T03:46:20;15.70;99.90
12926;DHT22;6529;50.566;9.774;2023-07-02T03:48:45;15.70;99.90
12926;DHT22;6529;50.566;9.774;2023-07-02T03:51:11;15.70;99.90
12926;DHT22;6529;50.566;9.774;2023-07-02T03:53:40;15.70;99.90
12926;DHT22;6529;50.566;9.774;2023-07-02T03:56:06;15.70;99.90
12926;DHT22;6529;50.566;9.774;2023-07-02T03:58:31;15.70;99.90
12926;DHT22;6529;50.566;9.774;2023-07-02T04:00:57;15.70;99.90
12926;DHT22;6529;50.566;9.774;2023-07-02T04:03:22;15.70;99.90
12926;DHT22;6529;50.566;9.774;2023-07-02T04:05:48;15.70;99.90
12926;DHT22;6529;50.566;9.774;2023-07-02T04:08:15;15.80;99.90
12926;DHT22;6529;50.566;9.774;2023-07-02T04:10:40;15.80;99.90
12926;DHT22;6529;50.566;9.774;2023-07-02T04:13:06;15.70;99.90
12926;DHT22;6529;50.566;9.774;2023-07-02T04:15:32;15.70;99.90
12926;DHT22;6529;50.566;9.774;2023-07-02T04:17:57;15.70;99.90
12926;DHT22;6529;50.566;9.774;2023-07-02T04:20:23;15.70;99.90
12926;DHT22;6529;50.566;9.774;2023-07-02T04:22:49;15.60;99.90
12926;DHT22;6529;50.566;9.774;2023-07-02T04:25:15;15.70;99.90
12926;DHT22;6529;50.566;9.774;2023-07-02T04:27:41;15.70;99.90
12926;DHT22;6529;50.566;9.774;2023-07-02T04:30:08;15.70;99.90
12926;DHT22;6529;50.566;9.774;2023-07-02T04:32:35;15.70;99.90
12926;DHT22;6529;50.566;9.774;2023-07-02T04:35:01;15.60;99.90
12926;DHT22;6529;50.566;9.774;2023-07-02T04:37:26;15.60;99.90
12926;DHT22;6529;50.566;9.774;2023-07-02T04:39:54;15.60;99.90
12926;DHT22;6529;50.566;9.774;2023-07-02T04:42:19;15.70;99.90
12926;DHT22;6529;50.566;9.774;2023-07-02T04:44:45;15.70;99.90
12926;DHT22;6529;50.566;9.774;2023-07-02T04:47:11;15.70;99.90
12926;DHT22;6529;50.566;9.774;2023-07-02T04:49:37;15.70;99.90
12926;DHT22;6529;50.566;9.774;2023-07-02T04:52:03;15.60;99.90
12926;DHT22;6529;50.566;9.774;2023-07-02T04:54:29;15.60;99.90
12926;DHT22;6529;50.566;9.774;2023-07-02T04:56:54;15.70;99.90
12926;DHT22;6529;50.566;9.774;2023-07-02T04:59:21;15.70;99.90
12926;DHT22;6529;50.566;9.774;2023-07-02T05:01:47;15.80;99.90
12926;DHT22;6529;50.566;9.774;2023-07-02T05:04:13;15.70;99.90
12926;DHT22;6529;50.566;9.774;2023-07-02T05:06:38;15.70;99.90
12926;DHT22;6529;50.566;9.774;2023-07-02T05:09:04;15.70;99.90
12926;DHT22;6529;50.566;9.774;2023-07-02T05:11:30;15.70;99.90
12926;DHT22;6529;50.566;9.774;2023-07-02T05:13:55;15.80;99.90
12926;DHT22;6529;50.566;9.774;2023-07-02T05:16:21;15.80;99.90
12926;DHT22;6529;50.566;9.774;2023-07-02T05:18:46;15.80;99.90
12926;DHT22;6529;50.566;9.774;2023-07-02T05:21:12;15.80;99.90
12926;DHT22;6529;50.566;9.774;2023-07-02T05:23:37;15.80;99.90
12926;DHT22;6529;50.566;9.774;2023-07-02T05:26:03;15.80;99.90
12926;DHT22;6529;50.566;9.774;2023-07-02T05:28:29;15.80;99.90
12926;DHT22;6529;50.566;9.774;2023-07-02T05:30:54;15.80;99.90
12926;DHT22;6529;50.566;9.774;2023-07-02T05:33:20;15.80;99.90
12926;DHT22;6529;50.566;9.774;2023-07-02T05:35:47;15.90;99.90
12926;DHT22;6529;50.566;9.774;2023-07-02T05:38:13;15.90;99.90
12926;DHT22;6529;50.566;9.774;2023-07-02T05:40:39;16.00;99.90
12926;DHT22;6529;50.566;9.774;2023-07-02T05:43:04;16.00;99.90
12926;DHT22;6529;50.566;9.774;2023-07-02T05:45:30;15.90;99.90
12926;DHT22;6529;50.566;9.774;2023-07-02T05:47:56;15.90;99.90
12926;DHT22;6529;50.566;9.774;2023-07-02T05:50:21;15.90;99.90
12926;DHT22;6529;50.566;9.774;2023-07-02T05:52:47;15.90;99.90
12926;DHT22;6529;50.566;9.774;2023-07-02T05:55:12;15.90;99.90
12926;DHT22;6529;50.566;9.774;2023-07-02T05:57:38;15.90;99.90
12926;DHT22;6529;50.566;9.774;2023-07-02T06:00:06;15.90;99.90
12926;DHT22;6529;50.566;9.774;2023-07-02T06:02:32;15.90;99.90
12926;DHT22;6529;50.566;9.774;2023-07-02T06:04:58;15.90;99.90
12926;DHT22;6529;50.566;9.774;2023-07-02T06:07:27;15.90;99.90
12926;DHT22;6529;50.566;9.774;2023-07-02T06:09:58;15.90;99.90
12926;DHT22;6529;50.566;9.774;2023-07-02T06:12:24;15.90;99.90
12926;DHT22;6529;50.566;9.774;2023-07-02T06:14:49;16.00;99.90
12926;DHT22;6529;50.566;9.774;2023-07-02T06:17:15;16.00;99.90
12926;DHT22;6529;50.566;9.774;2023-07-02T06:19:41;16.00;99.90
12926;DHT22;6529;50.566;9.774;2023-07-02T06:22:07;16.00;99.90
12926;DHT22;6529;50.566;9.774;2023-07-02T06:24:32;15.90;99.90
12926;DHT22;6529;50.566;9.774;2023-07-02T06:26:58;15.90;99.90
12926;DHT22;6529;50.566;9.774;2023-07-02T06:29:24;15.80;99.90
12926;DHT22;6529;50.566;9.774;2023-07-02T06:31:50;15.70;99.90
12926;DHT22;6529;50.566;9.774;2023-07-02T06:34:16;15.80;99.90
12926;DHT22;6529;50.566;9.774;2023-07-02T06:36:42;15.90;99.90
12926;DHT22;6529;50.566;9.774;2023-07-02T06:39:07;15.90;99.90
12926;DHT22;6529;50.566;9.774;2023-07-02T06:41:35;15.90;99.90
12926;DHT22;6529;50.566;9.774;2023-07-02T06:44:00;15.90;99.90
12926;DHT22;6529;50.566;9.774;2023-07-02T06:46:26;15.90;99.90
12926;DHT22;6529;50.566;9.774;2023-07-02T06:48:51;16.00;99.90
12926;DHT22;6529;50.566;9.774;2023-07-02T06:51:17;16.00;99.90
12926;DHT22;6529;50.566;9.774;2023-07-02T06:53:45;16.10;99.90
12926;DHT22;6529;50.566;9.774;2023-07-02T06:56:10;16.00;99.90
12926;DHT22;6529;50.566;9.774;2023-07-02T06:58:36;16.00;99.90
12926;DHT22;6529;50.566;9.774;2023-07-02T07:01:02;16.10;99.90
12926;DHT22;6529;50.566;9.774;2023-07-02T07:03:28;16.10;99.90
12926;DHT22;6529;50.566;9.774;2023-07-02T07:05:53;16.10;99.90
12926;DHT22;6529;50.566;9.774;2023-07-02T07:08:19;16.10;99.90
12926;DHT22;6529;50.566;9.774;2023-07-02T07:10:45;16.00;99.90
12926;DHT22;6529;50.566;9.774;2023-07-02T07:13:11;16.00;99.90
12926;DHT22;6529;50.566;9.774;2023-07-02T07:15:37;16.10;99.90
12926;DHT22;6529;50.566;9.774;2023-07-02T07:18:03;16.20;99.90
12926;DHT22;6529;50.566;9.774;2023-07-02T07:20:30;16.20;99.90
12926;DHT22;6529;50.566;9.774;2023-07-02T07:22:56;16.20;63.60
12926;DHT22;6529;50.566;9.774;2023-07-02T07:25:21;16.30;55.40
12926;DHT22;6529;50.566;9.774;2023-07-02T07:27:47;16.30;38.80
12926;DHT22;6529;50.566;9.774;2023-07-02T07:30:12;16.40;1.00
12926;DHT22;6529;50.566;9.774;2023-07-02T07:32:40;16.40;1.00
12926;DHT22;6529;50.566;9.774;2023-07-02T07:35:06;16.50;1.00
12926;DHT22;6529;50.566;9.774;2023-07-02T07:37:32;16.60;1.00
12926;DHT22;6529;50.566;9.774;2023-07-02T07:39:58;16.60;1.00
12926;DHT22;6529;50.566;9.774;2023-07-02T07:42:24;16.60;1.00
12926;DHT22;6529;50.566;9.774;2023-07-02T07:44:49;16.70;1.00
12926;DHT22;6529;50.566;9.774;2023-07-02T07:47:15;16.70;1.00
12926;DHT22;6529;50.566;9.774;2023-07-02T07:49:41;16.80;1.00
12926;DHT22;6529;50.566;9.774;2023-07-02T07:52:07;16.80;1.00
12926;DHT22;6529;50.566;9.774;2023-07-02T07:54:33;16.80;1.00
12926;DHT22;6529;50.566;9.774;2023-07-02T07:57:01;16.70;1.00
12926;DHT22;6529;50.566;9.774;2023-07-02T07:59:26;16.60;1.00
12926;DHT22;6529;50.566;9.774;2023-07-02T08:01:52;16.60;4.80
12926;DHT22;6529;50.566;9.774;2023-07-02T08:04:17;16.70;31.90
12926;DHT22;6529;50.566;9.774;2023-07-02T08:06:43;16.70;2.50
12926;DHT22;6529;50.566;9.774;2023-07-02T08:09:08;16.70;1.00
12926;DHT22;6529;50.566;9.774;2023-07-02T08:11:35;16.80;1.00
12926;DHT22;6529;50.566;9.774;2023-07-02T08:14:00;16.80;1.00
12926;DHT22;6529;50.566;9.774;2023-07-02T08:16:26;16.80;1.00
12926;DHT22;6529;50.566;9.774;2023-07-02T08:18:51;16.70;1.00
12926;DHT22;6529;50.566;9.774;2023-07-02T08:21:17;16.70;1.00
12926;DHT22;6529;50.566;9.774;2023-07-02T08:23:43;16.70;1.00
12926;DHT22;6529;50.566;9.774;2023-07-02T08:26:09;16.70;1.00
12926;DHT22;6529;50.566;9.774;2023-07-02T08:28:36;16.90;1.00
12926;DHT22;6529;50.566;9.774;2023-07-02T08:31:03;16.90;1.00
12926;DHT22;6529;50.566;9.774;2023-07-02T08:33:29;17.00;1.00
12926;DHT22;6529;50.566;9.774;2023-07-02T08:35:55;16.90;1.00
12926;DHT22;6529;50.566;9.774;2023-07-02T08:38:20;17.00;1.00
12926;DHT22;6529;50.566;9.774;2023-07-02T08:40:46;16.90;1.00
12926;DHT22;6529;50.566;9.774;2023-07-02T08:43:11;16.90;1.00
12926;DHT22;6529;50.566;9.774;2023-07-02T08:45:37;17.00;1.00
12926;DHT22;6529;50.566;9.774;2023-07-02T08:48:05;17.00;1.00
12926;DHT22;6529;50.566;9.774;2023-07-02T08:50:31;17.10;1.00
12926;DHT22;6529;50.566;9.774;2023-07-02T08:52:57;17.30;1.00
12926;DHT22;6529;50.566;9.774;2023-07-02T08:55:22;17.40;99.90
12926;DHT22;6529;50.566;9.774;2023-07-02T08:57:52;17.30;99.90
12926;DHT22;6529;50.566;9.774;2023-07-02T09:00:17;17.40;99.90
12926;DHT22;6529;50.566;9.774;2023-07-02T09:02:43;17.20;99.90
12926;DHT22;6529;50.566;9.774;2023-07-02T09:05:10;17.20;1.00
12926;DHT22;6529;50.566;9.774;2023-07-02T09:07:49;17.20;1.00
12926;DHT22;6529;50.566;9.774;2023-07-02T09:10:30;17.20;1.00
12926;DHT22;6529;50.566;9.774;2023-07-02T09:13:06;17.20;1.00
12926;DHT22;6529;50.566;9.774;2023-07-02T09:15:39;17.30;1.00
12926;DHT22;6529;50.566;9.774;2023-07-02T09:20:40;17.40;2.30
12926;DHT22;6529;50.566;9.774;2023-07-02T09:23:06;17.60;99.90
12926;DHT22;6529;50.566;9.774;2023-07-02T09:25:37;17.70;1.00
12926;DHT22;6529;50.566;9.774;2023-07-02T09:28:11;17.80;93.80
12926;DHT22;6529;50.566;9.774;2023-07-02T09:30:51;18.00;1.00
12926;DHT22;6529;50.566;9.774;2023-07-02T09:33:18;18.10;1.00
12926;DHT22;6529;50.566;9.774;2023-07-02T09:35:43;18.00;99.90
12926;DHT22;6529;50.566;9.774;2023-07-02T09:38:10;17.90;1.00
12926;DHT22;6529;50.566;9.774;2023-07-02T09:40:46;17.80;1.00
12926;DHT22;6529;50.566;9.774;2023-07-02T09:43:14;17.70;1.00
12926;DHT22;6529;50.566;9.774;2023-07-02T09:45:44;17.70;1.00
12926;DHT22;6529;50.566;9.774;2023-07-02T09:48:13;17.70;1.00
12926;DHT22;6529;50.566;9.774;2023-07-02T09:50:44;17.70;1.00
12926;DHT22;6529;50.566;9.774;2023-07-02T09:53:11;17.80;1.00
12926;DHT22;6529;50.566;9.774;2023-07-02T09:55:41;18.30;1.00
12926;DHT22;6529;50.566;9.774;2023-07-02T09:58:07;18.60;95.90
12926;DHT22;6529;50.566;9.774;2023-07-02T10:00:33;19.00;99.90
12926;DHT22;6529;50.566;9.774;2023-07-02T10:03:00;19.20;1.00
12926;DHT22;6529;50.566;9.774;2023-07-02T10:05:30;19.10;1.00
12926;DHT22;6529;50.566;9.774;2023-07-02T10:07:56;19.00;1.00
12926;DHT22;6529;50.566;9.774;2023-07-02T10:10:32;18.90;1.00
12926;DHT22;6529;50.566;9.774;2023-07-02T10:12:58;19.10;1.00
12926;DHT22;6529;50.566;9.774;2023-07-02T10:15:25;19.50;99.90
12926;DHT22;6529;50.566;9.774;2023-07-02T10:17:55;19.80;1.00
12926;DHT22;6529;50.566;9.774;2023-07-02T10:20:32;20.00;99.90
12926;DHT22;6529;50.566;9.774;2023-07-02T10:23:02;19.80;99.90
12926;DHT22;6529;50.566;9.774;2023-07-02T10:25:29;19.60;1.00
12926;DHT22;6529;50.566;9.774;2023-07-02T10:27:55;19.50;1.00
12926;DHT22;6529;50.566;9.774;2023-07-02T10:30:35;19.80;99.90
12926;DHT22;6529;50.566;9.774;2023-07-02T10:35:38;20.80;1.00
12926;DHT22;6529;50.566;9.774;2023-07-02T10:38:04;20.70;60.20
12926;DHT22;6529;50.566;9.774;2023-07-02T10:40:32;20.70;6.10
12926;DHT22;6529;50.566;9.774;2023-07-02T10:42:58;20.50;99.90
12926;DHT22;6529;50.566;9.774;2023-07-02T10:45:31;20.40;1.00
12926;DHT22;6529;50.566;9.774;2023-07-02T10:47:58;20.20;99.90
12926;DHT22;6529;50.566;9.774;2023-07-02T10:50:23;20.20;1.00
12926;DHT22;6529;50.566;9.774;2023-07-02T10:52:49;20.40;99.90
12926;DHT22;6529;50.566;9.774;2023-07-02T10:55:22;20.30;81.70
12926;DHT22;6529;50.566;9.774;2023-07-02T10:57:49;20.10;99.90
12926;DHT22;6529;50.566;9.774;2023-07-02T11:00:18;20.00;99.90
12926;DHT22;6529;50.566;9.774;2023-07-02T11:02:44;20.00;99.90
12926;DHT22;6529;50.566;9.774;2023-07-02T11:05:09;20.00;1.00
12926;DHT22;6529;50.566;9.774;2023-07-02T11:07:39;20.00;1.00
12926;DHT22;6529;50.566;9.774;2023-07-02T11:10:06;20.10;1.00
12926;DHT22;6529;50.566;9.774;2023-07-02T11:12:32;20.30;1.00
12926;DHT22;6529;50.566;9.774;2023-07-02T11:15:13;20.40;1.00
12926;DHT22;6529;50.566;9.774;2023-07-02T11:17:39;20.70;1.00
12926;DHT22;6529;50.566;9.774;2023-07-02T11:20:08;20.80;1.00
12926;DHT22;6529;50.566;9.774;2023-07-02T11:22:35;20.80;1.00
12926;DHT22;6529;50.566;9.774;2023-07-02T11:25:18;20.80;1.00
12926;DHT22;6529;50.566;9.774;2023-07-02T11:27:47;20.90;1.00
12926;DHT22;6529;50.566;9.774;2023-07-02T11:30:13;21.20;1.00
12926;DHT22;6529;50.566;9.774;2023-07-02T11:32:49;21.60;99.90
12926;DHT22;6529;50.566;9.774;2023-07-02T11:35:15;21.50;1.00
12926;DHT22;6529;50.566;9.774;2023-07-02T11:37:41;21.40;1.00
12926;DHT22;6529;50.566;9.774;2023-07-02T11:40:07;21.60;1.00
12926;DHT22;6529;50.566;9.774;2023-07-02T11:42:33;21.60;1.00
12926;DHT22;6529;50.566;9.774;2023-07-02T11:44:59;21.60;1.00
12926;DHT22;6529;50.566;9.774;2023-07-02T11:47:24;21.60;1.00
12926;DHT22;6529;50.566;9.774;2023-07-02T11:49:52;21.30;1.00
12926;DHT22;6529;50.566;9.774;2023-07-02T11:52:18;21.10;1.00
12926;DHT22;6529;50.566;9.774;2023-07-02T11:54:44;21.00;99.90
12926;DHT22;6529;50.566;9.774;2023-07-02T11:57:09;21.10;99.90
12926;DHT22;6529;50.566;9.774;2023-07-02T11:59:35;21.20;1.00
12926;DHT22;6529;50.566;9.774;2023-07-02T12:02:02;21.60;1.00
12926;DHT22;6529;50.566;9.774;2023-07-02T12:04:27;21.70;1.00
12926;DHT22;6529;50.566;9.774;2023-07-02T12:06:53;21.60;1.00
12926;DHT22;6529;50.566;9.774;2023-07-02T12:09:18;21.40;99.90
12926;DHT22;6529;50.566;9.774;2023-07-02T12:11:44;21.30;99.90
12926;DHT22;6529;50.566;9.774;2023-07-02T12:14:11;21.20;99.90
12926;DHT22;6529;50.566;9.774;2023-07-02T12:16:37;21.50;99.90
12926;DHT22;6529;50.566;9.774;2023-07-02T12:19:02;21.70;31.20
12926;DHT22;6529;50.566;9.774;2023-07-02T12:21:28;21.80;1.00
12926;DHT22;6529;50.566;9.774;2023-07-02T12:23:54;21.70;1.00
12926;DHT22;6529;50.566;9.774;2023-07-02T12:26:19;21.90;1.00
12926;DHT22;6529;50.566;9.774;2023-07-02T12:28:45;22.10;1.00
12926;DHT22;6529;50.566;9.774;2023-07-02T12:31:11;22.00;1.00
12926;DHT22;6529;50.566;9.774;2023-07-02T12:33:38;22.00;1.00
12926;DHT22;6529;50.566;9.774;2023-07-02T12:36:04;21.80;1.00
12926;DHT22;6529;50.566;9.774;2023-07-02T12:38:29;21.70;1.00
12926;DHT22;6529;50.566;9.774;2023-07-02T12:40:55;21.60;99.90
12926;DHT22;6529;50.566;9.774;2023-07-02T12:43:21;21.60;1.00
12926;DHT22;6529;50.566;9.774;2023-07-02T12:45:47;21.40;1.00
12926;DHT22;6529;50.566;9.774;2023-07-02T12:48:12;21.20;50.40
12926;DHT22;6529;50.566;9.774;2023-07-02T12:50:38;21.00;99.90
12926;DHT22;6529;50.566;9.774;2023-07-02T12:53:05;20.90;99.90
12926;DHT22;6529;50.566;9.774;2023-07-02T12:55:30;20.80;1.00
12926;DHT22;6529;50.566;9.774;2023-07-02T12:57:56;20.80;99.90
12926;DHT22;6529;50.566;9.774;2023-07-02T13:00:21;20.80;1.00
12926;DHT22;6529;50.566;9.774;2023-07-02T13:02:48;21.00;99.90
12926;DHT22;6529;50.566;9.774;2023-07-02T13:05:13;21.30;99.90
12926;DHT22;6529;50.566;9.774;2023-07-02T13:07:39;21.30;99.90
12926;DHT22;6529;50.566;9.774;2023-07-02T13:10:05;21.20;99.90
12926;DHT22;6529;50.566;9.774;2023-07-02T13:12:31;21.40;99.90
12926;DHT22;6529;50.566;9.774;2023-07-02T13:14:57;22.00;1.00
12926;DHT22;6529;50.566;9.774;2023-07-02T13:17:22;21.90;1.00
12926;DHT22;6529;50.566;9.774;2023-07-02T13:19:48;21.90;1.00
12926;DHT22;6529;50.566;9.774;2023-07-02T13:22:14;21.80;1.00
12926;DHT22;6529;50.566;9.774;2023-07-02T13:24:40;21.70;1.00
12926;DHT22;6529;50.566;9.774;2023-07-02T13:27:11;21.90;1.00
12926;DHT22;6529;50.566;9.774;2023-07-02T13:29:38;22.10;1.00
12926;DHT22;6529;50.566;9.774;2023-07-02T13:32:03;22.20;1.00
12926;DHT22;6529;50.566;9.774;2023-07-02T13:34:29;22.20;1.00
12926;DHT22;6529;50.566;9.774;2023-07-02T13:36:55;22.10;1.00
12926;DHT22;6529;50.566;9.774;2023-07-02T13:39:20;22.30;1.00
12926;DHT22;6529;50.566;9.774;2023-07-02T13:41:46;22.60;99.90
12926;DHT22;6529;50.566;9.774;2023-07-02T13:44:11;22.90;99.90
12926;DHT22;6529;50.566;9.774;2023-07-02T13:46:37;22.90;90.70
12926;DHT22;6529;50.566;9.774;2023-07-02T13:49:03;22.70;1.00
12926;DHT22;6529;50.566;9.774;2023-07-02T13:51:28;22.50;1.00
12926;DHT22;6529;50.566;9.774;2023-07-02T13:53:54;22.20;1.00
12926;DHT22;6529;50.566;9.774;2023-07-02T13:56:19;22.10;99.90
12926;DHT22;6529;50.566;9.774;2023-07-02T14:01:26;21.80;99.90
12926;DHT22;6529;50.566;9.774;2023-07-02T14:03:51;21.70;99.90
12926;DHT22;6529;50.566;9.774;2023-07-02T14:06:19;21.70;99.90
12926;DHT22;6529;50.566;9.774;2023-07-02T14:08:44;21.70;1.00
12926;DHT22;6529;50.566;9.774;2023-07-02T14:11:10;21.80;99.90
12926;DHT22;6529;50.566;9.774;2023-07-02T14:13:36;21.80;1.00
12926;DHT22;6529;50.566;9.774;2023-07-02T14:16:01;21.90;1.00
12926;DHT22;6529;50.566;9.774;2023-07-02T14:18:27;21.90;1.00
12926;DHT22;6529;50.566;9.774;2023-07-02T14:20:53;21.80;1.00
12926;DHT22;6529;50.566;9.774;2023-07-02T14:23:18;21.70;1.00
12926;DHT22;6529;50.566;9.774;2023-07-02T14:25:44;21.60;1.00
12926;DHT22;6529;50.566;9.774;2023-07-02T14:28:09;21.60;94.00
12926;DHT22;6529;50.566;9.774;2023-07-02T14:30:36;21.60;99.90
12926;DHT22;6529;50.566;9.774;2023-07-02T14:33:01;21.60;99.90
12926;DHT22;6529;50.566;9.774;2023-07-02T14:35:27;21.50;99.90
12926;DHT22;6529;50.566;9.774;2023-07-02T14:37:55;21.50;99.90
12926;DHT22;6529;50.566;9.774;2023-07-02T14:40:20;21.50;99.90
12926;DHT22;6529;50.566;9.774;2023-07-02T14:42:46;21.40;99.90
12926;DHT22;6529;50.566;9.774;2023-07-02T14:45:12;21.30;99.90
12926;DHT22;6529;50.566;9.774;2023-07-02T14:47:37;21.20;1.00
12926;DHT22;6529;50.566;9.774;2023-07-02T14:50:03;21.10;1.00
12926;DHT22;6529;50.566;9.774;2023-07-02T14:52:29;21.10;1.00
12926;DHT22;6529;50.566;9.774;2023-07-02T14:54:55;21.20;99.90
12926;DHT22;6529;50.566;9.774;2023-07-02T14:57:20;21.40;99.90
12926;DHT22;6529;50.566;9.774;2023-07-02T14:59:47;21.80;1.00
12926;DHT22;6529;50.566;9.774;2023-07-02T15:02:14;22.10;1.00
12926;DHT22;6529;50.566;9.774;2023-07-02T15:04:40;22.20;99.90
12926;DHT22;6529;50.566;9.774;2023-07-02T15:07:06;22.30;99.90
12926;DHT22;6529;50.566;9.774;2023-07-02T15:09:32;22.10;99.90
12926;DHT22;6529;50.566;9.774;2023-07-02T15:11:57;21.80;99.90
12926;DHT22;6529;50.566;9.774;2023-07-02T15:14:23;21.70;99.90
12926;DHT22;6529;50.566;9.774;2023-07-02T15:16:48;21.70;99.90
12926;DHT22;6529;50.566;9.774;2023-07-02T15:19:14;21.70;1.00
12926;DHT22;6529;50.566;9.774;2023-07-02T15:21:41;22.10;99.90
12926;DHT22;6529;50.566;9.774;2023-07-02T15:24:07;22.50;99.90
12926;DHT22;6529;50.566;9.774;2023-07-02T15:26:36;22.60;1.00
12926;DHT22;6529;50.566;9.774;2023-07-02T15:29:01;22.30;43.30
12926;DHT22;6529;50.566;9.774;2023-07-02T15:31:27;22.10;65.40
12926;DHT22;6529;50.566;9.774;2023-07-02T15:33:53;22.00;76.00
12926;DHT22;6529;50.566;9.774;2023-07-02T15:36:19;21.90;99.90
12926;DHT22;6529;50.566;9.774;2023-07-02T15:38:46;21.80;99.90
12926;DHT22;6529;50.566;9.774;2023-07-02T15:41:14;21.90;1.00
12926;DHT22;6529;50.566;9.774;2023-07-02T15:43:41;21.90;99.90
12926;DHT22;6529;50.566;9.774;2023-07-02T15:46:08;21.80;99.90
12926;DHT22;6529;50.566;9.774;2023-07-02T15:48:34;21.90;99.90
12926;DHT22;6529;50.566;9.774;2023-07-02T15:51:03;22.40;99.90
12926;DHT22;6529;50.566;9.774;2023-07-02T15:53:28;22.60;1.00
12926;DHT22;6529;50.566;9.774;2023-07-02T15:55:55;22.30;1.00
12926;DHT22;6529;50.566;9.774;2023-07-02T15:58:22;22.10;1.00